Time;durP1;ratioP1;P1;durP2;ratioP2;P2;SDS_P1;SDS_P2;PMS_P1;PMS_P2;Temp;Humidity;BMP_temperature;BMP_pressure;BME280_temperature;BME280_humidity;BME280_pressure;Samples;Min_cycle;Max_cycle;Signal;HPM_P1;HPM_P2
2023/06/24 00:00:11;;;;;;;15.43;12.17;;;;;;;16.94;100.00;102348.13;5042921;28;20185;-72
2023/06/24 00:02:37;;;;;;;15.83;10.73;;;;;;;16.92;100.00;102350.69;5045659;28;20275;-72
2023/06/24 00:05:04;;;;;;;15.63;11.97;;;;;;;16.85;100.00;102350.53;5052598;28;20217;-72
2023/06/24 00:07:30;;;;;;;15.53;12.37;;;;;;;16.78;100.00;102344.38;5050531;28;21011;-72
2023/06/24 00:09:55;;;;;;;16.10;11.00;;;;;;;16.74;100.00;102339.09;5048742;28;20237;-72
2023/06/24 00:12:21;;;;;;;12.87;10.40;;;;;;;16.68;100.00;102346.75;5051103;28;20222;-72
2023/06/24 00:14:47;;;;;;;13.40;10.90;;;;;;;16.62;100.00;102339.75;5046722;28;20304;-72
2023/06/24 00:17:13;;;;;;;17.37;11.03;;;;;;;16.58;100.00;102337.09;5046118;28;20239;-72
2023/06/24 00:19:39;;;;;;;13.03;11.67;;;;;;;16.60;100.00;102330.22;5055859;28;20750;-72
2023/06/24 00:22:06;;;;;;;13.97;12.30;;;;;;;16.49;100.00;102335.19;5051983;28;20263;-72
2023/06/24 00:24:31;;;;;;;14.17;11.47;;;;;;;16.45;100.00;102335.09;5051041;28;20190;-73
2023/06/24 00:26:57;;;;;;;17.90;12.67;;;;;;;16.49;100.00;102344.66;5043081;28;20733;-72
2023/06/24 00:29:22;;;;;;;15.43;13.67;;;;;;;16.45;100.00;102353.22;5041420;28;20225;-72
2023/06/24 00:31:48;;;;;;;15.53;13.17;;;;;;;16.39;100.00;102350.47;5041155;28;20276;-72
2023/06/24 00:34:13;;;;;;;17.30;12.87;;;;;;;16.32;100.00;102353.75;5051955;28;20257;-72
2023/06/24 00:36:39;;;;;;;15.07;12.73;;;;;;;16.27;100.00;102358.84;5054696;28;20235;-72
2023/06/24 00:39:05;;;;;;;14.47;12.47;;;;;;;16.31;100.00;102359.78;5049990;28;20579;-72
2023/06/24 00:41:32;;;;;;;16.67;13.03;;;;;;;16.23;100.00;102356.16;5056644;28;20198;-72
2023/06/24 00:43:58;;;;;;;16.57;13.37;;;;;;;16.25;100.00;102364.84;5044283;28;20194;-72
2023/06/24 00:46:25;;;;;;;17.73;13.93;;;;;;;16.24;100.00;102373.41;5039292;28;20206;-73
2023/06/24 00:48:52;;;;;;;15.83;14.13;;;;;;;16.20;100.00;102366.44;5054953;28;20678;-72
2023/06/24 00:51:21;;;;;;;19.23;14.40;;;;;;;16.18;100.00;102366.41;5052586;28;20197;-72
2023/06/24 00:53:47;;;;;;;15.93;13.23;;;;;;;16.11;100.00;102371.44;5052218;28;20220;-72
2023/06/24 00:56:16;;;;;;;17.40;14.37;;;;;;;16.08;100.00;102380.00;5046320;28;20687;-72
2023/06/24 00:58:43;;;;;;;15.50;13.37;;;;;;;16.08;100.00;102373.94;5040972;28;20196;-72
2023/06/24 01:01:09;;;;;;;17.90;13.73;;;;;;;16.06;100.00;102381.66;5043883;28;20193;-73
2023/06/24 01:03:36;;;;;;;18.90;13.73;;;;;;;16.03;100.00;102378.13;5048604;28;20193;-71
2023/06/24 01:06:02;;;;;;;18.67;13.53;;;;;;;15.97;100.00;102380.59;5053746;28;20358;-76
2023/06/24 01:08:28;;;;;;;18.53;13.50;;;;;;;15.94;100.00;102377.94;5062908;28;20288;-72
2023/06/24 01:10:54;;;;;;;15.33;13.53;;;;;;;15.90;100.00;102377.00;5049078;28;20202;-72
2023/06/24 01:13:19;;;;;;;19.63;15.17;;;;;;;15.91;100.00;102375.28;5043819;28;20194;-72
2023/06/24 01:15:46;;;;;;;18.37;14.53;;;;;;;15.93;100.00;102382.22;5042813;28;20206;-72
2023/06/24 01:18:21;;;;;;;17.90;14.73;;;;;;;15.85;100.00;102378.63;5043098;28;20205;-72
2023/06/24 01:21:03;;;;;;;19.07;14.53;;;;;;;15.88;100.00;102376.06;5046877;28;20558;-72
2023/06/24 01:23:55;;;;;;;16.97;13.93;;;;;;;15.88;100.00;102376.06;5061328;28;20197;-72
2023/06/24 01:26:33;;;;;;;18.13;14.97;;;;;;;15.86;100.00;102382.03;5045704;28;20222;-72
2023/06/24 01:29:45;;;;;;;16.83;14.10;;;;;;;15.79;100.00;102386.19;5040103;28;20205;-72
2023/06/24 01:32:18;;;;;;;19.70;14.40;;;;;;;15.75;100.00;102381.78;4998725;28;20243;-72
2023/06/24 01:34:59;;;;;;;17.27;14.50;;;;;;;15.78;100.00;102383.56;5047941;28;20229;-72
2023/06/24 01:37:40;;;;;;;22.43;14.27;;;;;;;15.78;100.00;102378.41;5047759;28;20193;-72
2023/06/24 01:40:13;;;;;;;23.37;14.70;;;;;;;15.81;100.00;102387.13;5048183;28;20678;-72
2023/06/24 01:42:45;;;;;;;16.00;13.93;;;;;;;15.82;100.00;102387.97;5053552;28;20209;-72
2023/06/24 01:45:14;;;;;;;17.60;14.93;;;;;;;15.82;100.00;102391.44;5058827;28;20209;-72
2023/06/24 01:47:44;;;;;;;18.97;14.67;;;;;;;15.89;100.00;102402.81;5044776;28;20193;-72
2023/06/24 01:50:12;;;;;;;20.03;14.43;;;;;;;15.87;100.00;102397.59;5053047;28;20205;-72
2023/06/24 01:52:43;;;;;;;18.97;15.00;;;;;;;15.91;100.00;102398.53;5054566;28;20200;-72
2023/06/24 01:55:12;;;;;;;20.50;14.07;;;;;;;15.93;100.00;102400.31;5048208;28;20699;-72
2023/06/24 01:57:40;;;;;;;19.47;15.40;;;;;;;15.93;100.00;102399.44;5046207;28;20207;-72
2023/06/24 02:00:09;;;;;;;16.87;13.93;;;;;;;15.93;100.00;102400.31;5041233;28;20232;-72
2023/06/24 02:02:48;;;;;;;19.17;14.57;;;;;;;15.92;100.00;102393.41;5043375;28;20210;-72
2023/06/24 02:05:16;;;;;;;22.57;15.60;;;;;;;15.93;100.00;102402.88;5049598;28;20210;-72
2023/06/24 02:07:44;;;;;;;19.80;15.30;;;;;;;15.93;100.00;102402.88;5055819;28;20188;-72
2023/06/24 02:10:10;;;;;;;18.10;14.93;;;;;;;15.88;100.00;102401.91;5047557;28;20201;-72
2023/06/24 02:12:36;;;;;;;17.80;14.60;;;;;;;15.90;100.00;102405.44;5061047;28;20205;-72
2023/06/24 02:15:06;;;;;;;20.70;15.40;;;;;;;15.90;100.00;102408.00;5053521;28;20221;-72
2023/06/24 02:17:33;;;;;;;18.23;15.43;;;;;;;15.88;100.00;102399.34;5046958;28;20208;-72
2023/06/24 02:19:59;;;;;;;15.17;13.67;;;;;;;15.84;100.00;102400.09;5054596;28;20258;-72
2023/06/24 02:22:26;;;;;;;17.87;14.33;;;;;;;15.84;100.00;102397.50;5052733;28;20304;-72
2023/06/24 02:24:53;;;;;;;18.27;14.90;;;;;;;15.83;100.00;102407.81;5048662;28;20268;-73
2023/06/24 02:27:19;;;;;;;16.57;14.27;;;;;;;15.81;100.00;102401.75;5043228;28;20212;-72
2023/06/24 02:29:47;;;;;;;18.53;15.10;;;;;;;15.83;100.00;102405.22;5027617;28;20280;-72
2023/06/24 02:32:12;;;;;;;21.60;15.60;;;;;;;15.85;100.00;102411.31;5055016;28;21782;-72
2023/06/24 02:34:39;;;;;;;20.50;16.20;;;;;;;15.86;100.00;102419.09;5052799;28;20291;-72
2023/06/24 02:37:05;;;;;;;20.97;15.57;;;;;;;15.91;100.00;102417.50;5035390;28;20236;-72
2023/06/24 02:39:32;;;;;;;20.50;16.00;;;;;;;15.93;100.00;102422.72;5064390;28;20194;-72
2023/06/24 02:41:57;;;;;;;20.27;15.93;;;;;;;15.95;100.00;102423.59;5047937;28;20254;-72
2023/06/24 02:44:23;;;;;;;19.67;16.60;;;;;;;15.96;100.00;102423.63;5043393;28;20190;-72
2023/06/24 02:46:50;;;;;;;19.50;16.13;;;;;;;15.96;100.00;102417.59;5040922;28;20213;-72
2023/06/24 02:49:18;;;;;;;21.50;16.00;;;;;;;15.95;100.00;102418.44;5061100;28;20186;-72
2023/06/24 02:51:44;;;;;;;20.03;15.67;;;;;;;15.95;100.00;102426.19;5050102;28;20212;-73
2023/06/24 02:54:12;;;;;;;22.37;15.90;;;;;;;15.92;100.00;102421.81;5061970;28;20226;-72
2023/06/24 02:57:06;;;;;;;21.20;16.00;;;;;;;15.90;100.00;102427.78;5039887;28;20199;-72
2023/06/24 02:59:50;;;;;;;20.67;15.80;;;;;;;15.89;100.00;102431.22;5066012;28;20189;-73
2023/06/24 03:02:17;;;;;;;19.27;15.37;;;;;;;15.83;100.00;102431.06;5048796;28;20190;-72
2023/06/24 03:04:43;;;;;;;20.30;15.90;;;;;;;15.78;100.00;102443.00;5049256;28;20231;-73
2023/06/24 03:07:10;;;;;;;22.70;16.77;;;;;;;15.77;100.00;102443.84;5051336;28;20297;-73
2023/06/24 03:09:36;;;;;;;21.07;16.40;;;;;;;15.71;100.00;102443.69;5054300;28;20202;-72
2023/06/24 03:12:02;;;;;;;22.80;17.33;;;;;;;15.68;100.00;102433.28;5032857;28;20197;-73
2023/06/24 03:14:38;;;;;;;21.97;16.83;;;;;;;15.68;100.00;102434.16;5046799;28;20719;-72
2023/06/24 03:17:03;;;;;;;20.73;16.17;;;;;;;15.68;100.00;102430.69;5057874;28;20194;-73
2023/06/24 03:19:29;;;;;;;20.60;16.87;;;;;;;15.67;100.00;102426.38;5048929;28;20599;-71
2023/06/24 03:21:55;;;;;;;21.73;17.50;;;;;;;15.63;100.00;102435.78;5042811;28;20615;-71
2023/06/24 03:24:21;;;;;;;21.63;17.00;;;;;;;15.62;100.00;102443.47;5035799;28;20206;-73
2023/06/24 03:26:55;;;;;;;20.50;16.87;;;;;;;15.63;100.00;102446.09;5055885;28;20336;-71
2023/06/24 03:29:22;;;;;;;24.37;17.83;;;;;;;15.63;100.00;102443.50;5050817;28;20190;-71
2023/06/24 03:31:57;;;;;;;23.03;17.27;;;;;;;15.61;100.00;102445.16;5046662;28;20185;-71
2023/06/24 03:34:26;;;;;;;22.43;18.70;;;;;;;15.59;100.00;102445.97;5060102;28;20295;-73
2023/06/24 03:36:56;;;;;;;21.43;17.70;;;;;;;15.54;100.00;102443.28;5056819;28;20219;-71
2023/06/24 03:39:22;;;;;;;21.67;18.00;;;;;;;15.57;100.00;102447.66;5065798;28;20186;-71
2023/06/24 03:41:48;;;;;;;26.17;18.67;;;;;;;15.56;100.00;102448.50;5050071;28;20193;-71
2023/06/24 03:44:15;;;;;;;23.00;17.60;;;;;;;15.57;100.00;102440.75;5046186;28;20655;-73
2023/06/24 03:46:40;;;;;;;23.47;17.87;;;;;;;15.56;100.00;102445.91;5051198;28;20208;-71
2023/06/24 03:49:07;;;;;;;22.60;16.50;;;;;;;15.58;100.00;102454.56;5046911;28;20198;-71
2023/06/24 03:51:32;;;;;;;21.77;17.27;;;;;;;15.56;100.00;102453.66;5054820;28;20200;-71
2023/06/24 03:53:58;;;;;;;25.10;18.43;;;;;;;15.51;100.00;102450.09;5062676;28;20347;-71
2023/06/24 03:56:23;;;;;;;22.40;17.23;;;;;;;15.55;100.00;102449.31;5064067;28;20646;-71
2023/06/24 03:58:49;;;;;;;22.53;18.20;;;;;;;15.58;100.00;102454.56;5050809;28;20209;-71
2023/06/24 04:01:14;;;;;;;21.73;16.73;;;;;;;15.57;100.00;102451.09;5035156;28;20252;-71
2023/06/24 04:03:40;;;;;;;22.60;17.20;;;;;;;15.57;100.00;102451.09;5050733;28;20185;-72
2023/06/24 04:06:07;;;;;;;22.37;17.43;;;;;;;15.52;100.00;102447.53;5056621;28;20218;-72
2023/06/24 04:08:32;;;;;;;24.60;17.37;;;;;;;15.59;100.00;102451.13;5054286;28;20886;-72
2023/06/24 04:11:00;;;;;;;23.87;17.50;;;;;;;15.65;100.00;102444.41;5052293;28;20202;-72
2023/06/24 04:13:25;;;;;;;25.20;18.23;;;;;;;15.69;100.00;102438.50;5063450;28;20195;-72
2023/06/24 04:15:52;;;;;;;23.60;18.53;;;;;;;15.74;100.00;102444.63;5051311;28;20714;-72
2023/06/24 04:18:19;;;;;;;25.10;18.87;;;;;;;15.81;100.00;102445.66;5046077;28;20241;-72
2023/06/24 04:20:44;;;;;;;26.43;18.27;;;;;;;15.86;100.00;102449.22;5048353;28;20200;-72
2023/06/24 04:23:14;;;;;;;23.97;19.20;;;;;;;15.90;100.00;102456.22;5051974;28;20194;-73
2023/06/24 04:25:40;;;;;;;24.47;18.60;;;;;;;15.97;100.00;102460.72;5052821;28;20312;-71
2023/06/24 04:28:05;;;;;;;24.73;19.30;;;;;;;16.03;100.00;102455.66;5063323;28;20280;-73
2023/06/24 04:30:32;;;;;;;25.90;18.73;;;;;;;16.08;100.00;102461.81;5045164;28;20245;-71
2023/06/24 04:32:58;;;;;;;22.33;17.93;;;;;;;16.14;100.00;102461.94;5058476;28;20197;-73
2023/06/24 04:35:24;;;;;;;24.20;19.47;;;;;;;16.19;100.00;102457.75;5062944;28;20224;-72
2023/06/24 04:37:50;;;;;;;22.27;18.33;;;;;;;16.23;100.00;102452.69;5054974;28;20181;-72
2023/06/24 04:40:18;;;;;;;23.53;17.90;;;;;;;16.24;100.00;102449.25;5049954;28;20204;-72
2023/06/24 04:42:44;;;;;;;24.70;17.37;;;;;;;16.27;100.00;102443.28;5047672;28;20303;-72
2023/06/24 04:45:10;;;;;;;25.87;19.40;;;;;;;16.32;100.00;102439.09;5050711;28;20300;-72
2023/06/24 04:47:35;;;;;;;25.70;18.57;;;;;;;16.36;100.00;102439.19;5050842;28;20196;-71
2023/06/24 04:50:01;;;;;;;27.80;19.40;;;;;;;16.44;100.00;102452.31;5044269;28;20201;-74
2023/06/24 04:52:27;;;;;;;24.50;18.93;;;;;;;16.50;100.00;102452.44;5055016;28;20185;-71
2023/06/24 04:54:52;;;;;;;25.47;19.13;;;;;;;16.54;100.00;102449.94;5048354;28;20217;-73
2023/06/24 04:57:29;;;;;;;29.00;18.93;;;;;;;16.65;100.00;102452.75;5049226;28;20207;-71
2023/06/24 04:59:55;;;;;;;25.10;19.10;;;;;;;16.72;100.00;102455.50;5051856;28;20270;-72
2023/06/24 05:02:21;;;;;;;26.27;19.50;;;;;;;16.81;100.00;102457.41;5048332;28;20200;-71
2023/06/24 05:04:46;;;;;;;25.13;18.73;;;;;;;16.88;100.00;102457.56;5042586;28;20194;-71
2023/06/24 05:07:11;;;;;;;26.43;18.03;;;;;;;16.96;100.00;102461.19;5052912;28;20190;-71
2023/06/24 05:09:37;;;;;;;24.00;18.30;;;;;;;17.04;100.00;102463.91;5054929;28;20208;-71
2023/06/24 05:12:07;;;;;;;24.70;17.30;;;;;;;17.12;100.00;102463.19;5043422;28;20856;-72
2023/06/24 05:14:36;;;;;;;23.40;17.37;;;;;;;17.15;100.00;102463.28;5059364;28;20692;-73
2023/06/24 05:17:05;;;;;;;22.27;17.43;;;;;;;17.22;100.00;102469.44;5047031;28;20228;-73
2023/06/24 05:19:30;;;;;;;18.83;15.63;;;;;;;17.35;100.00;102472.25;5046348;28;20217;-73
2023/06/24 05:21:56;;;;;;;22.37;16.70;;;;;;;17.47;100.00;102466.47;5052807;28;20220;-72
2023/06/24 05:24:21;;;;;;;19.27;15.77;;;;;;;17.59;100.00;102464.09;5052698;28;20197;-72
2023/06/24 05:26:49;;;;;;;22.13;16.23;;;;;;;17.62;100.00;102464.13;5055594;28;20288;-72
2023/06/24 05:29:15;;;;;;;22.90;16.47;;;;;;;17.60;100.00;102461.50;5048982;28;20197;-72
2023/06/24 05:31:41;;;;;;;22.93;14.70;;;;;;;17.75;100.00;102466.97;5049661;28;20189;-72
2023/06/24 05:34:07;;;;;;;19.10;15.20;;;;;;;17.84;100.00;102461.94;5043154;28;20206;-72
2023/06/24 05:36:33;;;;;;;20.00;15.57;;;;;;;17.96;100.00;102449.13;5051435;28;20652;-72
2023/06/24 05:38:59;;;;;;;16.57;13.30;;;;;;;18.08;100.00;102449.31;5054641;28;20226;-72
2023/06/24 05:41:24;;;;;;;15.17;12.53;;;;;;;18.17;100.00;102448.56;5043839;28;20198;-72
2023/06/24 05:44:04;;;;;;;16.27;12.37;;;;;;;18.26;100.00;102443.53;5052814;28;20239;-72
2023/06/24 05:46:30;;;;;;;15.30;13.13;;;;;;;18.29;100.00;102440.97;5046247;28;20213;-72
2023/06/24 05:48:56;;;;;;;14.93;12.37;;;;;;;18.37;100.00;102448.03;5046866;28;20308;-71
2023/06/24 05:51:21;;;;;;;13.80;12.30;;;;;;;18.37;100.00;102445.44;5044208;28;20670;-71
2023/06/24 05:53:47;;;;;;;17.17;11.83;;;;;;;18.65;100.00;102447.53;5042196;28;20577;-71
2023/06/24 05:56:12;;;;;;;15.40;10.00;;;;;;;18.65;100.00;102434.56;5051477;28;20256;-71
2023/06/24 05:58:37;;;;;;;10.10;8.07;;;;;;;18.53;100.00;102438.72;5051201;28;20326;-71
2023/06/24 06:01:03;;;;;;;10.40;8.90;;;;;;;18.47;100.00;102446.44;5045012;28;20210;-72
2023/06/24 06:03:28;;;;;;;11.53;8.73;;;;;;;18.60;100.00;102436.22;5045982;28;20201;-71
2023/06/24 06:05:54;;;;;;;12.50;9.63;;;;;;;18.82;100.00;102433.03;5045937;28;20320;-71
2023/06/24 06:08:19;;;;;;;12.57;9.03;;;;;;;19.01;100.00;102434.97;5047300;28;20292;-71
2023/06/24 06:10:44;;;;;;;14.53;9.07;;;;;;;19.15;100.00;102433.38;5051304;28;20732;-72
2023/06/24 06:13:10;;;;;;;9.53;7.80;;;;;;;19.05;100.00;102441.94;5050031;28;20296;-71
2023/06/24 06:15:35;;;;;;;11.77;8.13;;;;;;;19.21;100.00;102458.56;5051491;28;20213;-72
2023/06/24 06:18:01;;;;;;;14.57;9.30;;;;;;;19.42;100.00;102458.78;5045473;28;20246;-73
2023/06/24 06:20:26;;;;;;;9.23;8.23;;;;;;;19.47;100.00;102465.78;5044148;28;20202;-74
2023/06/24 06:22:51;;;;;;;9.67;8.20;;;;;;;19.54;100.00;102467.59;5057099;28;20197;-71
2023/06/24 06:25:17;;;;;;;10.20;9.10;;;;;;;19.63;100.00;102462.44;5051092;28;20213;-71
2023/06/24 06:27:42;;;;;;;12.70;8.70;;;;;;;19.77;100.00;102473.81;5054497;28;20555;-71
2023/06/24 06:30:08;;;;;;;11.43;8.73;;;;;;;19.93;100.00;102467.91;5046435;28;20208;-72
2023/06/24 06:32:33;;;;;;;11.03;8.40;;;;;;;19.96;100.00;102478.34;5049385;28;20186;-73
2023/06/24 06:34:59;;;;;;;12.17;9.07;;;;;;;19.82;100.00;102484.28;5046645;28;20221;-73
2023/06/24 06:37:24;;;;;;;12.57;9.30;;;;;;;20.17;100.00;102482.84;5057933;28;20227;-73
2023/06/24 06:39:50;;;;;;;12.27;8.30;;;;;;;20.42;100.00;102483.00;5060052;28;20304;-73
2023/06/24 06:42:16;;;;;;;11.27;7.90;;;;;;;20.11;100.00;102490.59;5044817;28;20225;-73
2023/06/24 06:44:41;;;;;;;9.50;7.97;;;;;;;20.13;100.00;102483.69;5068057;28;20193;-72
2023/06/24 06:47:07;;;;;;;10.53;8.30;;;;;;;20.15;100.00;102484.56;5049800;28;20193;-73
2023/06/24 06:49:32;;;;;;;10.20;8.03;;;;;;;20.21;100.00;102472.47;5051620;28;20205;-72
2023/06/24 06:51:58;;;;;;;12.57;8.70;;;;;;;20.32;100.00;102468.19;5048579;28;20185;-73
2023/06/24 06:54:23;;;;;;;9.67;8.63;;;;;;;20.52;100.00;102457.88;5056237;28;20256;-73
2023/06/24 06:56:48;;;;;;;11.60;7.87;;;;;;;20.39;100.00;102474.28;5058010;28;20235;-73
2023/06/24 06:59:14;;;;;;;7.13;6.43;;;;;;;20.70;100.00;102470.97;5051608;28;20197;-73
2023/06/24 07:01:39;;;;;;;8.27;6.60;;;;;;;20.93;100.00;102452.00;5052376;28;20193;-73
2023/06/24 07:04:05;;;;;;;8.00;6.83;;;;;;;21.19;100.00;102462.50;5046862;28;20559;-72
2023/06/24 07:06:32;;;;;;;11.27;6.60;;;;;;;21.36;100.00;102439.91;5055968;28;20312;-73
2023/06/24 07:08:58;;;;;;;8.47;5.77;;;;;;;21.44;100.00;102441.66;5051977;28;20283;-73
2023/06/24 07:11:23;;;;;;;7.60;6.90;;;;;;;21.51;100.00;102453.81;5060503;28;20276;-72
2023/06/24 07:13:51;;;;;;;10.20;6.73;;;;;;;21.55;100.00;102452.97;5055205;28;20282;-73
2023/06/24 07:16:20;;;;;;;8.73;6.37;;;;;;;21.59;100.00;102465.13;5044684;28;20236;-73
2023/06/24 07:18:45;;;;;;;10.20;6.07;;;;;;;21.23;100.00;102470.31;5043992;28;20198;-73
2023/06/24 07:21:10;;;;;;;7.17;6.33;;;;;;;20.96;100.00;102480.66;5042691;28;20222;-73
2023/06/24 07:23:36;;;;;;;8.37;6.03;;;;;;;20.84;100.00;102479.72;5059891;28;20201;-73
2023/06/24 07:26:01;;;;;;;6.10;5.43;;;;;;;21.26;100.00;102452.06;5054275;28;20214;-73
2023/06/24 07:28:27;;;;;;;5.50;4.93;;;;;;;21.59;100.00;102415.59;5046086;28;21122;-73
2023/06/24 07:30:52;;;;;;;6.77;4.40;;;;;;;21.75;100.00;102361.72;5057049;28;20304;-73
2023/06/24 07:33:17;;;;;;;5.10;4.50;;;;;;;21.78;100.00;102359.94;5044847;28;20191;-73
2023/06/24 07:35:43;;;;;;;4.50;3.90;;;;;;;21.90;100.00;102331.22;5049400;28;20241;-73
2023/06/24 07:38:08;;;;;;;7.20;4.40;;;;;;;21.99;100.00;102323.38;5054056;28;20686;-73
2023/06/24 07:40:34;;;;;;;5.43;4.47;;;;;;;22.16;100.00;102325.91;5055825;28;20675;-73
2023/06/24 07:42:59;;;;;;;7.83;4.23;;;;;;;22.26;100.00;102312.78;5048582;28;20675;-73
2023/06/24 07:45:25;;;;;;;4.93;4.23;;;;;;;22.63;100.00;102307.41;5046990;28;20210;-73
2023/06/24 07:47:51;;;;;;;5.72;4.88;;;;;;;22.68;100.00;102295.19;5049804;28;20244;-73
2023/06/24 07:50:16;;;;;;;7.95;4.13;;;;;;;22.79;100.00;102303.81;5041725;28;20281;-72
2023/06/24 07:52:41;;;;;;;5.72;4.53;;;;;;;22.95;100.00;102259.25;5053810;28;20195;-73
2023/06/24 07:55:07;;;;;;;5.30;4.77;;;;;;;22.30;100.00;102277.97;5049283;28;20275;-73
2023/06/24 07:57:33;;;;;;;5.03;4.47;;;;;;;22.50;100.00;102288.34;5063897;28;20307;-73
2023/06/24 07:59:58;;;;;;;6.22;5.40;;;;;;;22.85;100.00;102335.13;5051645;28;20270;-71
2023/06/24 08:02:24;;;;;;;9.43;5.32;;;;;;;23.01;100.00;102342.00;5047534;28;20664;-72
2023/06/24 08:04:50;;;;;;;6.25;5.07;;;;;;;23.27;100.00;102353.13;5044391;28;20189;-72
2023/06/24 08:07:16;;;;;;;6.60;4.57;;;;;;;23.26;100.00;102336.59;5043311;28;20197;-72
2023/06/24 08:09:41;;;;;;;5.13;4.60;;;;;;;23.36;100.00;102337.34;5052097;28;20193;-72
2023/06/24 08:12:07;;;;;;;5.20;4.47;;;;;;;23.39;100.00;102330.34;5054256;28;20682;-71
2023/06/24 08:14:33;;;;;;;6.20;4.78;;;;;;;23.12;100.00;102299.22;5050826;28;20706;-71
2023/06/24 08:16:58;;;;;;;5.05;4.53;;;;;;;23.33;100.00;102313.84;5048135;28;20224;-71
2023/06/24 08:19:24;;;;;;;4.95;4.03;;;;;;;23.41;100.00;102288.47;5044307;28;20232;-71
2023/06/24 08:21:49;;;;;;;4.93;4.30;;;;;;;23.34;96.25;102258.06;5061989;28;20273;-72
2023/06/24 08:24:14;;;;;;;4.70;4.05;;;;;;;23.57;99.25;102279.63;5056451;28;20196;-71
2023/06/24 08:26:40;;;;;;;4.65;3.85;;;;;;;24.01;92.10;102238.97;5052943;28;20674;-73
2023/06/24 08:29:07;;;;;;;5.30;4.13;;;;;;;23.76;95.06;102247.97;5048927;28;20342;-72
2023/06/24 08:31:32;;;;;;;5.75;3.70;;;;;;;23.75;90.48;102233.16;5048571;28;20942;-71
2023/06/24 08:34:02;;;;;;;5.68;4.05;;;;;;;24.18;93.20;102229.09;5043476;28;20246;-71
2023/06/24 08:36:29;;;;;;;4.10;3.78;;;;;;;24.37;97.47;102267.28;5040939;28;20233;-70
2023/06/24 08:38:54;;;;;;;4.18;3.78;;;;;;;24.53;93.50;102229.47;5056640;28;20268;-73
2023/06/24 08:41:20;;;;;;;4.63;3.55;;;;;;;24.49;93.59;102227.78;5055000;28;20233;-71
2023/06/24 08:43:45;;;;;;;5.15;3.95;;;;;;;23.53;99.59;102276.13;5059670;28;20192;-73
2023/06/24 08:46:16;;;;;;;6.13;3.78;;;;;;;24.39;100.00;102304.78;5051187;28;20229;-71
2023/06/24 08:48:42;;;;;;;5.10;3.60;;;;;;;24.30;93.86;102256.88;5047788;28;20780;-71
2023/06/24 08:51:09;;;;;;;3.75;3.45;;;;;;;24.60;92.19;102246.88;5041637;28;20194;-73
2023/06/24 08:53:37;;;;;;;4.80;3.35;;;;;;;24.94;94.03;102245.41;5050737;28;20247;-72
2023/06/24 08:56:04;;;;;;;3.90;3.60;;;;;;;25.08;94.76;102229.41;5054176;28;20883;-73
2023/06/24 08:58:30;;;;;;;4.25;3.85;;;;;;;25.09;87.15;102208.41;5047289;28;20229;-72
2023/06/24 09:00:55;;;;;;;6.47;4.20;;;;;;;25.07;87.04;102209.34;5049731;28;20284;-71
2023/06/24 09:03:22;;;;;;;4.82;3.75;;;;;;;24.81;84.31;102196.69;5044826;28;20604;-73
2023/06/24 09:05:48;;;;;;;3.95;3.60;;;;;;;24.99;89.69;102240.94;5043636;28;20209;-72
2023/06/24 09:08:15;;;;;;;5.63;3.72;;;;;;;25.32;86.18;102216.75;5045073;28;20686;-72
2023/06/24 09:10:41;;;;;;;4.47;3.65;;;;;;;25.34;87.54;102225.47;5057141;28;20271;-72
2023/06/24 09:13:07;;;;;;;6.28;3.90;;;;;;;24.71;83.42;102203.00;5051537;28;20197;-72
2023/06/24 09:15:37;;;;;;;6.80;4.07;;;;;;;24.79;87.89;102231.69;5047539;28;20233;-72
2023/06/24 09:18:04;;;;;;;5.65;4.07;;;;;;;24.92;80.41;102207.88;5025077;28;20229;-72
2023/06/24 09:20:31;;;;;;;4.53;3.92;;;;;;;25.27;78.77;102199.41;5046745;28;20282;-72
2023/06/24 09:23:01;;;;;;;6.40;3.70;;;;;;;25.59;81.99;102202.22;5048613;28;20189;-72
2023/06/24 09:25:26;;;;;;;7.18;4.32;;;;;;;25.65;78.68;102189.00;5055217;28;20222;-73
2023/06/24 09:27:52;;;;;;;4.88;4.00;;;;;;;25.72;75.02;102185.31;5045959;28;20213;-72
2023/06/24 09:30:20;;;;;;;5.00;3.88;;;;;;;26.04;81.17;102209.16;5036929;28;20288;-73
2023/06/24 09:32:47;;;;;;;4.28;3.78;;;;;;;26.14;75.68;102182.66;5031725;28;20198;-72
2023/06/24 09:35:13;;;;;;;4.85;3.95;;;;;;;24.86;81.83;102222.84;5033160;28;20224;-74
2023/06/24 09:37:38;;;;;;;6.00;3.97;;;;;;;25.33;81.69;102230.75;5033557;28;20557;-72
2023/06/24 09:40:05;;;;;;;4.57;3.88;;;;;;;25.89;77.59;102205.09;5040988;28;20883;-72
2023/06/24 09:42:31;;;;;;;6.47;3.70;;;;;;;26.20;71.86;102172.00;5043385;28;20247;-72
2023/06/24 09:44:57;;;;;;;5.65;4.50;;;;;;;26.37;73.92;102180.34;5037606;28;20730;-73
2023/06/24 09:47:27;;;;;;;5.57;4.82;;;;;;;26.52;71.46;102176.50;5032378;28;20198;-72
2023/06/24 09:49:54;;;;;;;4.55;3.92;;;;;;;26.05;67.45;102153.09;5037477;28;20194;-72
2023/06/24 09:52:21;;;;;;;6.25;4.40;;;;;;;26.26;70.25;102185.00;5029307;28;20722;-73
2023/06/24 09:54:51;;;;;;;4.53;3.63;;;;;;;25.77;67.28;102170.34;5038690;28;20214;-71
2023/06/24 09:57:20;;;;;;;5.22;4.18;;;;;;;25.14;77.99;102209.19;5039771;28;20252;-72
2023/06/24 09:59:46;;;;;;;6.72;4.25;;;;;;;26.15;71.57;102197.50;5044321;28;20209;-73
2023/06/24 10:02:15;;;;;;;6.45;3.95;;;;;;;26.45;65.76;102167.00;5048768;28;20667;-73
2023/06/24 10:04:41;;;;;;;5.07;4.28;;;;;;;26.68;73.39;102202.38;5034931;28;20181;-72
2023/06/24 10:07:07;;;;;;;5.07;3.88;;;;;;;26.23;67.43;102161.41;5039771;28;20611;-72
2023/06/24 10:09:32;;;;;;;5.03;4.18;;;;;;;25.39;74.42;102193.88;5034179;28;20205;-71
2023/06/24 10:11:58;;;;;;;4.40;3.92;;;;;;;25.77;81.18;102241.22;5052355;28;20205;-72
2023/06/24 10:14:24;;;;;;;5.78;4.43;;;;;;;26.46;69.93;102173.97;5041221;28;20218;-71
2023/06/24 10:16:49;;;;;;;5.72;4.55;;;;;;;26.43;69.64;102160.94;5035485;28;20256;-72
2023/06/24 10:19:21;;;;;;;6.28;4.28;;;;;;;26.63;72.80;102162.19;5015220;28;20226;-71
2023/06/24 10:22:14;;;;;;;5.15;4.65;;;;;;;26.39;64.52;102131.22;5034726;28;20239;-72
2023/06/24 10:24:44;;;;;;;5.25;4.68;;;;;;;27.02;72.30;102170.78;5037243;28;20200;-72
2023/06/24 10:27:21;;;;;;;6.78;4.55;;;;;;;27.14;70.74;102149.41;5044614;28;20734;-72
2023/06/24 10:29:55;;;;;;;5.53;4.38;;;;;;;26.92;68.98;102150.91;5050289;28;20200;-73
2023/06/24 10:32:22;;;;;;;6.03;4.93;;;;;;;26.97;66.97;102134.09;5035136;28;20577;-73
2023/06/24 10:34:55;;;;;;;7.07;5.53;;;;;;;26.45;69.54;102145.97;5031488;28;20253;-74
2023/06/24 10:37:25;;;;;;;6.57;5.20;;;;;;;26.17;74.64;102182.59;5043042;28;20197;-72
2023/06/24 10:40:01;;;;;;;7.28;5.20;;;;;;;26.80;76.68;102191.53;5033413;28;20192;-72
2023/06/24 10:42:43;;;;;;;7.45;5.10;;;;;;;27.33;71.82;102158.53;5038196;28;20197;-72
2023/06/24 10:45:08;;;;;;;5.05;4.65;;;;;;;26.82;71.81;102150.31;5034883;28;20309;-72
2023/06/24 10:47:34;;;;;;;7.03;5.45;;;;;;;26.00;79.98;102189.97;5041340;28;20198;-73
2023/06/24 10:49:59;;;;;;;5.75;5.20;;;;;;;27.06;75.55;102182.97;5036408;28;20264;-72
2023/06/24 10:52:25;;;;;;;5.40;4.90;;;;;;;27.53;68.25;102130.75;5040657;28;20277;-72
2023/06/24 10:54:51;;;;;;;5.20;4.70;;;;;;;27.68;70.94;102138.16;5043289;28;20289;-72
2023/06/24 10:57:23;;;;;;;5.25;4.75;;;;;;;27.85;71.48;102129.78;5040987;28;20567;-73
2023/06/24 10:59:51;;;;;;;5.35;4.80;;;;;;;28.31;67.56;102119.47;5035100;28;20232;-73
2023/06/24 11:02:21;;;;;;;6.18;5.03;;;;;;;27.63;63.28;102102.38;5029869;28;20590;-72
2023/06/24 11:04:48;;;;;;;16.40;14.68;;;;;;;27.65;68.35;102118.97;5048926;28;20201;-71
2023/06/24 11:07:15;;;;;;;6.97;6.30;;;;;;;27.62;74.70;102162.06;5040085;28;20340;-72
2023/06/24 11:09:42;;;;;;;6.57;4.93;;;;;;;27.52;73.46;102157.97;5041644;28;20212;-72